Kezdőlap
METAR-TAF:

METAR-TAF

Repülőterek :

Steamboat Springs, Colorado, Amerikai Egyesült Államok

földrajzi szélesség: 40-30-58N, földrajzi hosszúság: 106-51-59W, magasság: 2098 m

Jelenlegi meteorológiai megfigyelések

A jelentés 22 perccel ezelõtt készült, 05:15 UTC
Szélcsend
Hőmérséklet 6°C
Páratartalom 49%
Légköri nyomás 1018 hPa
Látótávolság: 16.1 km
Derült ég

METAR: KSBS 130515Z AUTO 00000KT 10SM CLR 06/M04 A3006 RMK AO1 T00631038

Idő: 23:37 (05:37 UTC)


TAF: hiányzik

Meteorológiai megfigyelések és előrejelzések több, mint 4000 repülőtéren (METAR és TAF jelentéseket).

A térképen piros és sárga pontok jelzik az elérhető meteorológiai állomásokat.

Mozgassa az egeret a pont fölött, hogy megjelenjen az állomás neve.

Azután kattintson az időjárási megfigyelések és előrejelzések megtekintéséhez.

A térkép megváltoztatása: kattintson a fekete keresztel jelölt zöld gombra ráközelítéshez, a vonallal jelölt zöld gombra távolításhoz, vagy a zöld nyilakra a szomszédos térképek eléréséhez.


METAR-TAF: